Time;durP1;ratioP1;P1;durP2;ratioP2;P2;SDS_P1;SDS_P2;PMS_P1;PMS_P2;Temp;Humidity;BMP_temperature;BMP_pressure;BME280_temperature;BME280_humidity;BME280_pressure;Samples;Min_cycle;Max_cycle;Signal;HPM_P1;HPM_P2
2024/02/25 00:00:32;;;;;;;;;;;;;;;17.78;35.22;100855.39;102315;1294;72618;-80
2024/02/25 00:03:00;;;;;;;;;;;;;;;17.78;35.23;100855.20;102286;1294;75277;-81
2024/02/25 00:05:37;;;;;;;;;;;;;;;;;;;;;
2024/02/25 00:08:03;;;;;;;;;;;;;;;17.78;35.26;100847.02;102989;1291;61272;-80
2024/02/25 00:10:32;;;;;;;;;;;;;;;17.78;35.21;100849.86;102892;1289;72518;-80
2024/02/25 00:12:58;;;;;;;;;;;;;;;17.78;35.28;100850.02;102924;1292;61574;-82
2024/02/25 00:15:23;;;;;;;;;;;;;;;17.78;35.23;100851.80;102638;1291;61448;-82
2024/02/25 00:17:49;;;;;;;;;;;;;;;17.77;35.20;100846.86;102890;1291;61369;-82
2024/02/25 00:20:15;;;;;;;;;;;;;;;17.78;35.20;100848.77;102882;1291;61425;-80
2024/02/25 00:22:41;;;;;;;;;;;;;;;17.78;35.21;100848.78;102689;1292;72473;-80
2024/02/25 00:25:12;;;;;;;;;;;;;;;17.78;35.25;100842.92;102714;1295;74543;-81
2024/02/25 00:27:37;;;;;;;;;;;;;;;17.77;35.30;100839.20;102941;1289;61427;-82
2024/02/25 00:30:03;;;;;;;;;;;;;;;17.77;35.20;100840.80;102918;1291;61419;-81
2024/02/25 00:32:29;;;;;;;;;;;;;;;17.78;35.30;100842.20;102843;1292;61324;-82
2024/02/25 00:34:54;;;;;;;;;;;;;;;17.78;35.31;100838.84;102693;1296;61500;-80
2024/02/25 00:37:20;;;;;;;;;;;;;;;17.78;35.33;100836.16;102834;1289;61611;-80
2024/02/25 00:39:46;;;;;;;;;;;;;;;17.78;35.31;100836.55;102718;1295;61344;-81
2024/02/25 00:42:12;;;;;;;;;;;;;;;17.77;35.33;100836.89;102825;1290;61372;-80
2024/02/25 00:44:39;;;;;;;;;;;;;;;17.78;35.23;100840.44;102712;1291;62320;-81
2024/02/25 00:47:05;;;;;;;;;;;;;;;17.77;35.25;100840.64;102788;1292;74285;-81
2024/02/25 00:49:31;;;;;;;;;;;;;;;17.77;35.25;100839.55;102776;1292;61395;-80
2024/02/25 00:51:57;;;;;;;;;;;;;;;17.78;35.30;100839.55;102685;1290;62039;-80
2024/02/25 00:54:22;;;;;;;;;;;;;;;17.77;35.31;100838.67;102717;1295;61508;-81
2024/02/25 00:56:48;;;;;;;;;;;;;;;17.77;35.48;100836.01;102723;1292;61335;-83
2024/02/25 00:59:14;;;;;;;;;;;;;;;17.77;35.29;100831.93;102716;1290;62563;-79
2024/02/25 01:01:40;;;;;;;;;;;;;;;17.77;35.28;100832.61;102779;1294;62220;-82
2024/02/25 01:04:05;;;;;;;;;;;;;;;17.77;35.24;100832.09;102760;1291;61387;-82
2024/02/25 01:06:31;;;;;;;;;;;;;;;17.77;35.33;100843.31;102692;1292;61517;-80
2024/02/25 01:08:56;;;;;;;;;;;;;;;17.76;35.29;100839.59;102765;1295;61462;-82
2024/02/25 01:11:22;;;;;;;;;;;;;;;17.76;35.24;100842.80;102711;1290;61419;-81
2024/02/25 01:13:48;;;;;;;;;;;;;;;17.77;35.26;100846.34;102773;1290;61300;-81
2024/02/25 01:16:13;;;;;;;;;;;;;;;17.77;35.24;100843.84;102770;1290;62503;-80
2024/02/25 01:18:39;;;;;;;;;;;;;;;17.77;35.43;100842.23;102691;1297;61442;-80
2024/02/25 01:21:05;;;;;;;;;;;;;;;17.76;35.34;100847.42;102721;1290;61482;-81
2024/02/25 01:23:30;;;;;;;;;;;;;;;17.76;35.38;100843.52;102774;1290;61371;-81
2024/02/25 01:25:56;;;;;;;;;;;;;;;17.76;35.40;100839.78;102733;1294;62542;-81
2024/02/25 01:28:22;;;;;;;;;;;;;;;17.76;35.34;100841.02;102689;1291;62474;-79
2024/02/25 01:30:47;;;;;;;;;;;;;;;17.76;35.34;100835.53;102716;1297;61404;-81
2024/02/25 01:33:14;;;;;;;;;;;;;;;17.76;35.38;100843.53;102704;1291;62662;-80
2024/02/25 01:35:39;;;;;;;;;;;;;;;17.76;35.36;100857.42;102689;1290;61444;-83
2024/02/25 01:38:05;;;;;;;;;;;;;;;17.76;35.33;100849.95;102780;1291;61397;-79
2024/02/25 01:40:34;;;;;;;;;;;;;;;17.76;35.35;100848.88;102748;1290;61420;-79
2024/02/25 01:43:09;;;;;;;;;;;;;;;17.76;35.40;100854.56;102725;1294;61399;-82
2024/02/25 01:45:37;;;;;;;;;;;;;;;17.76;35.29;100856.54;102849;1292;61394;-79
2024/02/25 01:48:03;;;;;;;;;;;;;;;17.76;35.34;100856.90;102785;1291;61293;-80
2024/02/25 01:50:31;;;;;;;;;;;;;;;17.76;35.27;100860.81;102692;1291;61942;-84
2024/02/25 01:52:57;;;;;;;;;;;;;;;17.76;35.42;100858.86;102840;1291;74298;-83
2024/02/25 01:55:23;;;;;;;;;;;;;;;17.76;35.38;100854.60;102823;1296;62115;-81
2024/02/25 01:57:48;;;;;;;;;;;;;;;17.76;35.40;100859.20;102668;1292;62423;-81
2024/02/25 02:00:23;;;;;;;;;;;;;;;17.76;35.39;100856.52;102723;1292;62683;-80
2024/02/25 02:02:48;;;;;;;;;;;;;;;17.76;35.38;100856.90;102746;1289;74474;-81
2024/02/25 02:05:14;;;;;;;;;;;;;;;17.76;35.33;100855.47;102682;1291;61417;-81
2024/02/25 02:07:39;;;;;;;;;;;;;;;17.76;35.41;100853.86;102834;1292;61403;-81
2024/02/25 02:10:12;;;;;;;;;;;;;;;17.76;35.41;100854.40;102725;1290;71553;-80
2024/02/25 02:12:45;;;;;;;;;;;;;;;17.75;35.38;100852.82;102721;1291;61414;-84
2024/02/25 02:15:10;;;;;;;;;;;;;;;17.75;35.28;100845.34;103087;1296;63292;-81
2024/02/25 02:17:38;;;;;;;;;;;;;;;17.76;35.38;100844.79;102652;1291;62450;-82
2024/02/25 02:20:04;;;;;;;;;;;;;;;17.76;35.40;100849.23;102791;1290;72652;-81
2024/02/25 02:22:30;;;;;;;;;;;;;;;17.75;35.49;100848.02;102752;1295;61856;-80
2024/02/25 02:24:55;;;;;;;;;;;;;;;17.75;35.34;100851.21;102744;1291;61851;-81
2024/02/25 02:27:21;;;;;;;;;;;;;;;17.76;35.38;100849.25;102686;1291;61344;-80
2024/02/25 02:29:47;;;;;;;;;;;;;;;17.76;35.36;100852.80;102722;1291;61488;-82
2024/02/25 02:32:12;;;;;;;;;;;;;;;17.75;35.43;100848.05;102793;1291;61494;-82
2024/02/25 02:34:38;;;;;;;;;;;;;;;17.75;35.36;100848.95;102749;1294;74524;-81
2024/02/25 02:37:04;;;;;;;;;;;;;;;17.75;35.38;100845.38;102772;1291;61689;-80
2024/02/25 02:39:30;;;;;;;;;;;;;;;17.75;35.48;100846.28;102788;1292;61383;-80
2024/02/25 02:41:56;;;;;;;;;;;;;;;17.75;35.39;100843.27;102711;1292;61394;-81
2024/02/25 02:44:22;;;;;;;;;;;;;;;17.75;35.42;100846.27;102663;1292;62367;-81
2024/02/25 02:46:47;;;;;;;;;;;;;;;17.74;35.46;100851.65;102680;1295;61426;-82
2024/02/25 02:49:13;;;;;;;;;;;;;;;17.74;35.41;100855.39;102723;1290;62160;-82
2024/02/25 02:51:39;;;;;;;;;;;;;;;17.74;35.35;100856.44;102747;1291;62083;-82
2024/02/25 02:54:04;;;;;;;;;;;;;;;17.74;35.49;100855.40;102662;1297;61426;-82
2024/02/25 02:56:32;;;;;;;;;;;;;;;17.74;35.46;100853.07;102876;1291;61392;-81
2024/02/25 02:58:58;;;;;;;;;;;;;;;17.74;35.50;100856.27;102808;1295;61422;-80
2024/02/25 03:01:23;;;;;;;;;;;;;;;17.73;35.41;100857.03;102844;1292;61430;-80
2024/02/25 03:03:50;;;;;;;;;;;;;;;17.73;35.45;100858.62;102816;1293;61939;-79
2024/02/25 03:06:19;;;;;;;;;;;;;;;17.73;35.53;100860.97;102818;1295;61414;-80
2024/02/25 03:08:45;;;;;;;;;;;;;;;17.73;35.43;100862.38;102840;1291;61827;-82
2024/02/25 03:11:10;;;;;;;;;;;;;;;17.73;35.38;100859.54;102649;1296;61480;-81
2024/02/25 03:13:36;;;;;;;;;;;;;;;17.73;35.49;100860.06;102782;1291;62262;-81
2024/02/25 03:16:01;;;;;;;;;;;;;;;17.73;35.45;100862.23;102690;1292;62269;-80
2024/02/25 03:18:27;;;;;;;;;;;;;;;17.72;35.48;100857.96;102738;1291;61384;-81
2024/02/25 03:20:53;;;;;;;;;;;;;;;17.73;35.53;100852.97;102946;1291;61522;-79
2024/02/25 03:23:18;;;;;;;;;;;;;;;17.72;35.47;100858.86;102897;1295;61383;-80
2024/02/25 03:25:44;;;;;;;;;;;;;;;17.72;35.42;100862.63;102685;1296;61414;-79
2024/02/25 03:28:09;;;;;;;;;;;;;;;17.72;35.52;100864.91;103018;1291;61436;-79
2024/02/25 03:30:38;;;;;;;;;;;;;;;17.72;35.45;100869.73;102698;1291;61719;-83
2024/02/25 03:33:05;;;;;;;;;;;;;;;17.72;35.51;100873.47;102863;1292;61384;-81
2024/02/25 03:35:31;;;;;;;;;;;;;;;17.73;35.59;100878.27;102598;1294;61398;-79
2024/02/25 03:37:57;;;;;;;;;;;;;;;17.72;35.46;100876.67;102683;1294;62536;-80
2024/02/25 03:40:22;;;;;;;;;;;;;;;17.72;35.47;100876.16;102477;1295;62858;-80
2024/02/25 03:42:51;;;;;;;;;;;;;;;17.72;35.61;100876.52;102578;1294;61377;-80
2024/02/25 03:45:16;;;;;;;;;;;;;;;17.72;35.62;100875.98;102563;1294;62162;-81
2024/02/25 03:47:45;;;;;;;;;;;;;;;17.72;35.50;100873.68;102718;1294;61435;-80
2024/02/25 03:50:11;;;;;;;;;;;;;;;17.72;35.59;100874.22;102516;1298;62083;-82
2024/02/25 03:52:37;;;;;;;;;;;;;;;17.72;35.53;100878.66;102612;1294;61434;-82
2024/02/25 03:55:03;;;;;;;;;;;;;;;17.71;35.58;100880.67;102449;1298;61599;-79
2024/02/25 03:57:29;;;;;;;;;;;;;;;17.72;35.64;100890.43;102275;1301;61476;-79
2024/02/25 04:00:03;;;;;;;;;;;;;;;17.71;35.62;100890.06;102167;1297;62774;-80
2024/02/25 04:02:29;;;;;;;;;;;;;;;17.71;35.61;100892.95;102214;1297;61633;-81
2024/02/25 04:04:54;;;;;;;;;;;;;;;17.71;35.63;100896.88;102190;1297;62441;-80
2024/02/25 04:07:20;;;;;;;;;;;;;;;17.71;35.59;100898.63;102159;1302;61383;-81
2024/02/25 04:09:46;;;;;;;;;;;;;;;17.72;35.65;100903.41;102173;1297;62800;-81
2024/02/25 04:12:11;;;;;;;;;;;;;;;17.71;35.63;100902.90;101611;1297;711465;-80
2024/02/25 04:14:37;;;;;;;;;;;;;;;17.71;35.52;100901.86;102503;1294;61469;-79
2024/02/25 04:17:03;;;;;;;;;;;;;;;17.71;35.57;100901.85;102535;1294;62403;-80
2024/02/25 04:19:29;;;;;;;;;;;;;;;17.71;35.58;100896.36;102539;1294;61414;-82
2024/02/25 04:21:54;;;;;;;;;;;;;;;17.71;35.55;100896.86;102729;1300;61321;-81
2024/02/25 04:24:20;;;;;;;;;;;;;;;17.71;35.66;100902.40;102586;1299;61322;-84
2024/02/25 04:26:47;;;;;;;;;;;;;;;17.70;35.60;100898.50;102552;1294;61507;-81
2024/02/25 04:29:12;;;;;;;;;;;;;;;17.70;35.55;100899.74;102624;1294;74890;-80
2024/02/25 04:31:42;;;;;;;;;;;;;;;17.71;35.56;100895.61;102564;1300;61486;-80
2024/02/25 04:34:08;;;;;;;;;;;;;;;17.71;35.59;100894.58;102575;1294;61354;-81
2024/02/25 04:36:33;;;;;;;;;;;;;;;17.71;35.68;100894.23;102687;1292;61935;-80
2024/02/25 04:38:59;;;;;;;;;;;;;;;17.70;35.68;100893.89;102791;1296;62629;-83
2024/02/25 04:41:25;;;;;;;;;;;;;;;17.70;35.55;100893.17;102608;1295;61405;-80
2024/02/25 04:43:51;;;;;;;;;;;;;;;17.70;35.68;100896.38;102684;1293;61392;-81
2024/02/25 04:46:16;;;;;;;;;;;;;;;17.70;35.69;100897.79;102952;1294;61441;-79
2024/02/25 04:48:42;;;;;;;;;;;;;;;17.70;35.68;100894.80;102626;1292;62165;-79
2024/02/25 04:51:08;;;;;;;;;;;;;;;17.70;35.66;100893.55;102691;1297;61308;-79
2024/02/25 04:53:40;;;;;;;;;;;;;;;17.70;35.65;100895.85;102688;1296;74457;-80
2024/02/25 04:56:06;;;;;;;;;;;;;;;17.70;35.66;100892.82;102711;1292;61387;-81
2024/02/25 04:58:32;;;;;;;;;;;;;;;17.70;35.66;100889.46;102723;1290;61421;-81
2024/02/25 05:00:58;;;;;;;;;;;;;;;17.70;35.61;100889.27;102794;1295;61369;-83
2024/02/25 05:03:24;;;;;;;;;;;;;;;17.70;35.59;100888.71;102814;1292;61395;-79
2024/02/25 05:05:50;;;;;;;;;;;;;;;17.70;35.73;100884.64;102754;1291;61339;-82
2024/02/25 05:08:15;;;;;;;;;;;;;;;17.70;35.65;100888.19;102887;1293;61400;-81
2024/02/25 05:10:41;;;;;;;;;;;;;;;17.70;35.63;100886.98;102774;1291;61416;-80
2024/02/25 05:13:07;;;;;;;;;;;;;;;17.70;35.64;100889.08;102699;1291;72507;-81
2024/02/25 05:15:33;;;;;;;;;;;;;;;17.69;35.63;100893.23;102787;1295;61378;-80
2024/02/25 05:17:59;;;;;;;;;;;;;;;17.70;35.66;100899.24;102801;1293;61342;-79
2024/02/25 05:20:27;;;;;;;;;;;;;;;17.70;35.65;100906.38;102845;1292;61404;-79
2024/02/25 05:22:53;;;;;;;;;;;;;;;17.69;35.67;100909.23;102860;1292;72446;-79
2024/02/25 05:25:19;;;;;;;;;;;;;;;17.69;35.62;100910.48;102832;1290;61366;-80
2024/02/25 05:27:46;;;;;;;;;;;;;;;17.69;35.73;100913.67;102625;1299;61476;-81
2024/02/25 05:30:12;;;;;;;;;;;;;;;17.69;35.70;100920.61;102685;1290;61445;-81
2024/02/25 05:32:41;;;;;;;;;;;;;;;17.69;35.67;100927.40;102663;1296;72522;-81
2024/02/25 05:35:07;;;;;;;;;;;;;;;17.70;35.68;100935.58;102712;1291;61416;-80
2024/02/25 05:37:33;;;;;;;;;;;;;;;17.70;35.64;100937.71;102891;1291;62823;-80
2024/02/25 05:39:58;;;;;;;;;;;;;;;17.69;35.69;100936.30;102806;1292;62252;-82
2024/02/25 05:42:24;;;;;;;;;;;;;;;17.69;35.67;100939.00;102700;1297;61463;-80
2024/02/25 05:44:51;;;;;;;;;;;;;;;17.69;35.67;100938.07;102971;1292;61390;-80
2024/02/25 05:47:17;;;;;;;;;;;;;;;17.69;35.76;100942.35;102644;1294;74459;-80
2024/02/25 05:49:43;;;;;;;;;;;;;;;17.69;35.71;100938.61;102683;1297;62287;-80
2024/02/25 05:52:09;;;;;;;;;;;;;;;17.69;35.72;100941.11;103062;1294;61407;-83
2024/02/25 05:54:34;;;;;;;;;;;;;;;17.69;35.72;100943.78;102766;1292;61481;-80
2024/02/25 05:57:01;;;;;;;;;;;;;;;17.69;35.71;100944.67;102780;1292;62477;-82
2024/02/25 05:59:26;;;;;;;;;;;;;;;17.69;35.79;100950.39;102792;1292;61370;-82
2024/02/25 06:01:52;;;;;;;;;;;;;;;17.69;35.71;100947.89;102665;1292;61836;-80
2024/02/25 06:04:19;;;;;;;;;;;;;;;17.69;35.71;100953.21;102716;1290;61376;-80
2024/02/25 06:06:51;;;;;;;;;;;;;;;17.69;35.77;100948.95;102763;1290;72526;-81
2024/02/25 06:09:17;;;;;;;;;;;;;;;17.69;35.73;100947.89;102665;1290;74196;-82
2024/02/25 06:11:43;;;;;;;;;;;;;;;17.69;35.68;100949.32;102859;1289;62033;-81
2024/02/25 06:14:09;;;;;;;;;;;;;;;17.69;35.71;100953.08;102835;1294;61327;-80
2024/02/25 06:16:34;;;;;;;;;;;;;;;17.68;35.77;100957.38;102686;1291;62609;-77
2024/02/25 06:19:00;;;;;;;;;;;;;;;17.68;35.76;100960.55;102814;1294;61415;-83
2024/02/25 06:21:26;;;;;;;;;;;;;;;17.69;35.82;100963.73;102809;1295;61466;-80
2024/02/25 06:23:51;;;;;;;;;;;;;;;17.68;35.71;100966.98;102819;1292;62331;-80
2024/02/25 06:26:17;;;;;;;;;;;;;;;17.68;35.77;100969.45;102861;1291;61638;-80
2024/02/25 06:28:43;;;;;;;;;;;;;;;17.69;35.75;100976.75;102846;1293;61856;-80
2024/02/25 06:31:08;;;;;;;;;;;;;;;17.69;35.77;100977.98;102681;1294;62252;-80
2024/02/25 06:33:34;;;;;;;;;;;;;;;17.69;35.78;100976.19;102649;1291;61773;-80
2024/02/25 06:36:02;;;;;;;;;;;;;;;17.69;35.83;100976.75;103053;1292;61420;-82
2024/02/25 06:38:28;;;;;;;;;;;;;;;17.69;35.77;100977.27;102657;1294;61360;-82
2024/02/25 06:40:54;;;;;;;;;;;;;;;17.69;35.81;100984.40;102642;1291;61476;-81
2024/02/25 06:43:19;;;;;;;;;;;;;;;17.68;35.87;100986.92;102823;1292;61737;-82
2024/02/25 06:45:45;;;;;;;;;;;;;;;17.68;35.95;100986.89;102665;1294;61385;-81
2024/02/25 06:48:11;;;;;;;;;;;;;;;17.68;35.75;100985.33;102646;1295;61476;-80
2024/02/25 06:50:36;;;;;;;;;;;;;;;17.68;35.80;100989.58;102869;1291;61411;-80
2024/02/25 06:53:05;;;;;;;;;;;;;;;17.68;35.82;100998.48;102930;1294;61506;-80
2024/02/25 06:55:30;;;;;;;;;;;;;;;17.68;35.83;100996.53;102594;1290;74413;-83
2024/02/25 06:57:56;;;;;;;;;;;;;;;17.68;35.80;101001.34;102926;1291;62402;-82
2024/02/25 07:00:22;;;;;;;;;;;;;;;17.68;35.87;101002.77;102641;1295;61490;-79
2024/02/25 07:02:47;;;;;;;;;;;;;;;17.68;35.99;101001.33;102677;1292;61770;-81
2024/02/25 07:05:13;;;;;;;;;;;;;;;17.67;35.99;101000.64;102805;1294;61432;-80
2024/02/25 07:07:38;;;;;;;;;;;;;;;17.68;35.88;101005.80;102623;1292;74425;-81
2024/02/25 07:10:05;;;;;;;;;;;;;;;17.68;35.99;101009.70;102815;1291;61476;-81
2024/02/25 07:12:30;;;;;;;;;;;;;;;17.67;35.84;101011.34;102680;1292;62542;-82
2024/02/25 07:14:58;;;;;;;;;;;;;;;17.67;35.80;101010.61;102666;1295;62347;-82
2024/02/25 07:17:24;;;;;;;;;;;;;;;17.67;35.94;101011.69;102688;1297;61833;-79
2024/02/25 07:19:51;;;;;;;;;;;;;;;17.67;35.90;101008.48;102684;1289;61582;-83
2024/02/25 07:22:17;;;;;;;;;;;;;;;17.67;35.87;101004.76;102875;1294;61318;-81
2024/02/25 07:24:43;;;;;;;;;;;;;;;17.67;35.95;101001.20;102826;1294;61409;-79
2024/02/25 07:27:11;;;;;;;;;;;;;;;17.68;35.92;101003.48;102636;1295;61839;-83
2024/02/25 07:29:37;;;;;;;;;;;;;;;17.67;35.87;101005.11;102842;1292;62175;-79
2024/02/25 07:32:03;;;;;;;;;;;;;;;17.67;35.86;101005.30;102632;1297;61527;-80
2024/02/25 07:34:28;;;;;;;;;;;;;;;17.67;35.88;101006.71;102647;1292;61352;-81
2024/02/25 07:36:54;;;;;;;;;;;;;;;17.67;35.85;101004.79;102723;1294;61996;-82
2024/02/25 07:39:20;;;;;;;;;;;;;;;17.67;35.84;101006.92;102660;1297;61469;-80
2024/02/25 07:41:48;;;;;;;;;;;;;;;17.67;35.89;101007.27;102648;1294;61288;-80
2024/02/25 07:44:14;;;;;;;;;;;;;;;17.67;35.87;101007.08;102787;1294;61384;-80
2024/02/25 07:46:40;;;;;;;;;;;;;;;17.67;35.90;101000.87;102633;1294;61749;-81
2024/02/25 07:49:06;;;;;;;;;;;;;;;17.67;35.94;100999.45;102610;1295;62720;-80
2024/02/25 07:51:35;;;;;;;;;;;;;;;17.66;35.92;100996.80;103009;1291;62342;-80
2024/02/25 07:54:01;;;;;;;;;;;;;;;17.67;35.87;100996.78;102726;1292;61465;-82
2024/02/25 07:56:29;;;;;;;;;;;;;;;17.66;35.90;100998.93;102603;1299;72370;-81
2024/02/25 07:58:57;;;;;;;;;;;;;;;17.66;36.02;100999.64;102636;1294;74348;-80
2024/02/25 08:01:23;;;;;;;;;;;;;;;17.66;36.00;101000.52;102734;1294;61299;-80
2024/02/25 08:03:51;;;;;;;;;;;;;;;17.66;36.09;100998.92;102685;1291;61457;-80
2024/02/25 08:06:27;;;;;;;;;;;;;;;17.66;35.95;100995.73;102736;1295;72485;-81
2024/02/25 08:09:02;;;;;;;;;;;;;;;17.67;36.04;100991.61;102929;1292;75183;-80
2024/02/25 08:11:28;;;;;;;;;;;;;;;17.67;36.05;100984.33;102955;1290;61288;-81
2024/02/25 08:13:54;;;;;;;;;;;;;;;17.66;36.00;100980.59;102954;1294;61454;-79
2024/02/25 08:16:22;;;;;;;;;;;;;;;17.67;36.01;100980.94;102953;1294;61407;-79
2024/02/25 08:18:51;;;;;;;;;;;;;;;17.67;36.08;100977.55;102747;1291;74522;-81
2024/02/25 08:21:16;;;;;;;;;;;;;;;17.66;36.04;100977.20;102927;1294;62416;-79
2024/02/25 08:23:43;;;;;;;;;;;;;;;17.67;36.12;100974.34;102679;1289;61732;-81
2024/02/25 08:26:10;;;;;;;;;;;;;;;17.67;36.02;100974.34;102646;1295;61436;-79
2024/02/25 08:28:35;;;;;;;;;;;;;;;17.67;36.02;100973.45;102888;1294;61363;-80
2024/02/25 08:31:01;;;;;;;;;;;;;;;17.67;36.11;100968.61;102647;1295;62499;-81
2024/02/25 08:33:27;;;;;;;;;;;;;;;17.67;36.06;100965.42;103001;1295;61307;-80
2024/02/25 08:35:52;;;;;;;;;;;;;;;17.68;36.04;100959.35;102736;1295;61406;-81
2024/02/25 08:38:18;;;;;;;;;;;;;;;17.67;36.07;100956.34;102891;1294;71758;-81
2024/02/25 08:40:43;;;;;;;;;;;;;;;17.67;36.10;100952.95;102667;1295;62355;-80
2024/02/25 08:43:09;;;;;;;;;;;;;;;17.67;36.04;100947.79;102900;1295;61960;-80
2024/02/25 08:45:43;;;;;;;;;;;;;;;17.68;36.14;100949.55;102923;1292;61375;-80
2024/02/25 08:48:09;;;;;;;;;;;;;;;17.68;36.22;100948.81;102642;1295;61429;-80
2024/02/25 08:50:34;;;;;;;;;;;;;;;17.68;36.01;100951.70;102716;1295;61384;-79
2024/02/25 08:53:03;;;;;;;;;;;;;;;17.68;36.23;100955.23;102685;1295;62450;-81
2024/02/25 08:55:28;;;;;;;;;;;;;;;17.68;36.10;100961.98;102735;1294;61826;-81
2024/02/25 08:57:54;;;;;;;;;;;;;;;17.68;36.13;100965.73;102766;1295;61448;-80
2024/02/25 09:00:20;;;;;;;;;;;;;;;17.68;36.22;100967.31;102892;1295;61868;-84
2024/02/25 09:02:45;;;;;;;;;;;;;;;17.68;36.21;100967.16;102670;1295;61367;-81
2024/02/25 09:05:11;;;;;;;;;;;;;;;17.68;36.22;100968.39;102716;1295;61743;-82
2024/02/25 09:07:36;;;;;;;;;;;;;;;17.68;36.18;100962.34;102746;1295;61415;-81
2024/02/25 09:10:04;;;;;;;;;;;;;;;17.68;36.14;100956.30;102856;1303;61353;-81
2024/02/25 09:12:31;;;;;;;;;;;;;;;17.68;36.29;100949.02;102700;1295;62170;-82
2024/02/25 09:14:57;;;;;;;;;;;;;;;17.68;36.17;100927.29;102743;1296;61417;-81
2024/02/25 09:17:23;;;;;;;;;;;;;;;17.68;36.24;100909.47;102718;1297;61397;-79
2024/02/25 09:19:48;;;;;;;;;;;;;;;17.68;36.26;100902.20;102686;1290;62261;-80
2024/02/25 09:22:14;;;;;;;;;;;;;;;17.68;36.24;100897.04;102837;1295;62194;-80
2024/02/25 09:24:43;;;;;;;;;;;;;;;17.68;36.15;100894.54;102675;1294;62560;-80
2024/02/25 09:27:08;;;;;;;;;;;;;;;17.68;36.27;100891.32;102641;1295;61423;-82
2024/02/25 09:29:39;;;;;;;;;;;;;;;17.68;36.22;100887.41;102825;1296;61375;-80
2024/02/25 09:32:04;;;;;;;;;;;;;;;17.68;36.20;100883.13;102820;1294;74155;-80
2024/02/25 09:34:30;;;;;;;;;;;;;;;17.68;36.27;100880.81;102826;1290;62388;-81
2024/02/25 09:36:55;;;;;;;;;;;;;;;17.69;36.17;100880.08;103033;1294;61396;-82
2024/02/25 09:39:21;;;;;;;;;;;;;;;17.69;36.25;100884.34;102836;1295;61298;-80
2024/02/25 09:41:46;;;;;;;;;;;;;;;17.69;36.30;100887.17;102649;1297;61387;-80
2024/02/25 09:44:16;;;;;;;;;;;;;;;17.69;36.36;100889.66;102740;1295;75475;-80
2024/02/25 09:46:55;;;;;;;;;;;;;;;;;;;;;
2024/02/25 09:49:23;;;;;;;;;;;;;;;17.69;36.19;100881.83;102859;1289;62308;-80
2024/02/25 09:51:52;;;;;;;;;;;;;;;17.69;36.49;100883.42;102774;1297;72338;-82
2024/02/25 09:54:17;;;;;;;;;;;;;;;17.70;36.29;100890.35;102786;1291;75242;-81
2024/02/25 09:56:48;;;;;;;;;;;;;;;17.70;36.35;100904.95;102648;1297;61377;-80
2024/02/25 09:59:17;;;;;;;;;;;;;;;17.70;36.39;100915.80;102887;1294;61337;-80
2024/02/25 10:01:47;;;;;;;;;;;;;;;17.70;36.37;100930.20;102853;1293;72491;-80
2024/02/25 10:04:12;;;;;;;;;;;;;;;17.69;36.28;100939.47;102684;1294;74459;-80
2024/02/25 10:06:38;;;;;;;;;;;;;;;17.69;36.27;100948.21;102730;1297;62610;-81
2024/02/25 10:09:03;;;;;;;;;;;;;;;17.70;36.27;100946.94;102656;1289;61313;-81
2024/02/25 10:11:29;;;;;;;;;;;;;;;17.70;36.31;100943.77;102716;1295;61390;-82
2024/02/25 10:13:56;;;;;;;;;;;;;;;17.70;36.36;100929.14;102673;1294;62247;-81
2024/02/25 10:16:22;;;;;;;;;;;;;;;17.70;36.38;100914.38;102849;1291;61353;-81
2024/02/25 10:18:51;;;;;;;;;;;;;;;17.69;36.35;100908.73;102723;1296;61849;-81
2024/02/25 10:21:18;;;;;;;;;;;;;;;17.69;36.44;100906.05;102688;1297;62421;-80
2024/02/25 10:23:43;;;;;;;;;;;;;;;17.69;36.34;100906.59;102710;1295;73409;-80
2024/02/25 10:26:25;;;;;;;;;;;;;;;17.68;36.46;100903.77;102798;1295;62910;-79
2024/02/25 10:29:04;;;;;;;;;;;;;;;17.68;36.42;100893.46;102751;1294;61378;-82
2024/02/25 10:31:30;;;;;;;;;;;;;;;17.68;36.45;100890.06;102872;1290;61301;-80
2024/02/25 10:33:58;;;;;;;;;;;;;;;17.69;36.52;100894.52;102855;1294;61391;-81
2024/02/25 10:36:28;;;;;;;;;;;;;;;17.69;36.41;100890.05;102679;1292;73832;-80
2024/02/25 10:38:57;;;;;;;;;;;;;;;17.68;36.39;100882.77;102802;1297;62490;-80
2024/02/25 10:41:23;;;;;;;;;;;;;;;17.68;36.53;100881.70;102708;1292;61434;-80
2024/02/25 10:43:59;;;;;;;;;;;;;;;17.68;36.45;100879.04;102780;1294;62285;-80
2024/02/25 10:46:30;;;;;;;;;;;;;;;17.68;36.39;100874.95;102694;1289;73399;-81
2024/02/25 10:48:59;;;;;;;;;;;;;;;17.68;36.50;100876.36;102820;1294;62074;-82
2024/02/25 10:51:25;;;;;;;;;;;;;;;17.69;36.54;100880.77;102686;1290;62408;-80
2024/02/25 10:53:51;;;;;;;;;;;;;;;17.69;36.50;100874.36;102835;1294;61814;-80
2024/02/25 10:56:18;;;;;;;;;;;;;;;17.69;36.47;100878.80;102828;1292;62405;-80
2024/02/25 10:58:44;;;;;;;;;;;;;;;17.69;36.51;100873.14;102715;1294;61869;-79
2024/02/25 11:01:10;;;;;;;;;;;;;;;17.69;36.51;100866.52;102848;1290;61312;-80
2024/02/25 11:03:37;;;;;;;;;;;;;;;17.69;36.53;100865.29;102724;1294;61484;-80
2024/02/25 11:06:05;;;;;;;;;;;;;;;17.68;36.51;100862.48;102683;1295;61417;-80
2024/02/25 11:08:36;;;;;;;;;;;;;;;17.69;36.50;100856.02;102727;1289;62655;-80
2024/02/25 11:11:08;;;;;;;;;;;;;;;17.69;36.55;100853.00;102839;1290;61494;-82
2024/02/25 11:13:34;;;;;;;;;;;;;;;17.69;36.49;100851.38;102646;1291;72408;-80
2024/02/25 11:16:03;;;;;;;;;;;;;;;17.69;36.57;100843.03;102700;1297;62652;-80
2024/02/25 11:18:32;;;;;;;;;;;;;;;17.69;36.58;100839.83;102914;1289;61999;-81
2024/02/25 11:21:07;;;;;;;;;;;;;;;17.69;36.49;100850.14;102676;1292;61311;-80
2024/02/25 11:23:43;;;;;;;;;;;;;;;17.69;36.57;100848.36;102745;1290;72315;-80
2024/02/25 11:26:27;;;;;;;;;;;;;;;17.69;36.57;100848.52;102605;1294;74370;-79
2024/02/25 11:29:11;;;;;;;;;;;;;;;17.70;36.68;100836.79;102656;1293;62607;-80
2024/02/25 11:32:04;;;;;;;;;;;;;;;17.70;36.59;100837.65;102914;1294;61388;-82
2024/02/25 11:34:29;;;;;;;;;;;;;;;17.70;36.64;100838.88;102821;1294;72749;-81
2024/02/25 11:36:56;;;;;;;;;;;;;;;17.70;36.57;100845.31;102841;1291;62518;-79
2024/02/25 11:39:25;;;;;;;;;;;;;;;17.70;36.63;100845.31;103010;1290;61246;-81
2024/02/25 11:41:52;;;;;;;;;;;;;;;17.70;36.61;100839.60;102935;1290;61285;-79
2024/02/25 11:44:19;;;;;;;;;;;;;;;17.70;36.60;100837.80;103149;1291;61679;-80
2024/02/25 11:46:45;;;;;;;;;;;;;;;17.71;36.65;100838.13;103026;1293;74471;-79
2024/02/25 11:49:12;;;;;;;;;;;;;;;17.71;36.68;100834.60;102841;1291;61382;-81
2024/02/25 11:51:42;;;;;;;;;;;;;;;17.71;36.68;100845.61;103156;1290;61407;-80
2024/02/25 11:54:15;;;;;;;;;;;;;;;17.71;36.65;100845.97;102949;1294;72344;-81
2024/02/25 11:56:40;;;;;;;;;;;;;;;17.71;36.74;100852.38;102865;1292;74226;-80
2024/02/25 11:59:09;;;;;;;;;;;;;;;17.71;36.73;100859.27;102695;1292;61378;-80
2024/02/25 12:01:35;;;;;;;;;;;;;;;17.72;36.66;100855.71;102830;1291;61408;-80
2024/02/25 12:04:00;;;;;;;;;;;;;;;17.72;36.78;100849.64;102641;1297;61405;-81
2024/02/25 12:06:26;;;;;;;;;;;;;;;17.71;36.68;100842.02;102882;1291;61389;-79
2024/02/25 12:08:52;;;;;;;;;;;;;;;17.71;36.72;100828.69;102768;1295;61774;-80
2024/02/25 12:11:21;;;;;;;;;;;;;;;17.71;36.68;100814.95;102675;1292;61439;-82
2024/02/25 12:13:46;;;;;;;;;;;;;;;17.71;36.77;100797.90;102850;1291;62397;-81
2024/02/25 12:16:12;;;;;;;;;;;;;;;17.71;36.75;100793.64;103119;1294;61446;-83
2024/02/25 12:18:38;;;;;;;;;;;;;;;17.71;36.69;100795.58;102616;1290;62336;-82
2024/02/25 12:21:03;;;;;;;;;;;;;;;17.71;36.70;100800.55;102732;1295;61970;-80
2024/02/25 12:23:32;;;;;;;;;;;;;;;17.71;36.70;100800.20;102683;1291;61413;-81
2024/02/25 12:26:02;;;;;;;;;;;;;;;17.71;36.75;100791.84;102637;1289;72621;-81